Time;durP1;ratioP1;P1;durP2;ratioP2;P2;SDS_P1;SDS_P2;PMS_P1;PMS_P2;Temp;Humidity;BMP_temperature;BMP_pressure;BME280_temperature;BME280_humidity;BME280_pressure;Samples;Min_cycle;Max_cycle;Signal;HPM_P1;HPM_P2
2023/03/15 00:00:41;;;;;;;13.60;3.13;;;2.50;99.90;;;;;;5107733;27;20056;-75
2023/03/15 00:03:07;;;;;;;11.20;3.03;;;2.60;99.90;;;;;;5061306;28;20386;-73
2023/03/15 00:05:33;;;;;;;11.07;3.20;;;2.60;99.90;;;;;;5058746;28;20050;-74
2023/03/15 00:08:00;;;;;;;15.43;3.37;;;2.60;99.90;;;;;;5064555;28;20056;-73
2023/03/15 00:10:27;;;;;;;11.53;2.83;;;2.60;99.90;;;;;;5073156;28;20044;-73
2023/03/15 00:12:53;;;;;;;10.53;2.73;;;2.60;99.90;;;;;;5052157;28;20105;-74
2023/03/15 00:15:19;;;;;;;10.13;3.37;;;2.60;99.90;;;;;;5069747;28;20076;-74
2023/03/15 00:17:45;;;;;;;11.63;2.97;;;2.50;99.90;;;;;;5068171;28;20690;-74
2023/03/15 00:20:13;;;;;;;13.57;3.03;;;2.50;99.90;;;;;;5069496;28;20075;-74
2023/03/15 00:22:39;;;;;;;8.03;2.60;;;2.60;99.90;;;;;;5068158;28;20036;-73
2023/03/15 00:25:06;;;;;;;10.43;2.60;;;2.60;99.90;;;;;;5070379;28;20042;-75
2023/03/15 00:27:32;;;;;;;10.07;2.73;;;2.50;99.90;;;;;;5038071;28;20095;-75
2023/03/15 00:29:57;;;;;;;9.43;2.73;;;2.60;99.90;;;;;;5052068;28;20517;-75
2023/03/15 00:32:23;;;;;;;10.70;3.00;;;2.60;99.90;;;;;;5034300;28;20400;-74
2023/03/15 00:34:53;;;;;;;14.53;3.00;;;2.50;99.90;;;;;;5065989;28;20046;-75
2023/03/15 00:37:19;;;;;;;10.98;2.83;;;2.50;99.90;;;;;;5067028;28;20407;-75
2023/03/15 00:39:46;;;;;;;9.97;2.47;;;2.50;99.90;;;;;;5058258;28;20075;-75
2023/03/15 00:42:15;;;;;;;12.10;2.93;;;2.50;99.90;;;;;;5035985;28;20040;-74
2023/03/15 00:44:42;;;;;;;14.20;2.73;;;2.50;99.90;;;;;;5071176;28;20036;-70
2023/03/15 00:47:12;;;;;;;13.90;3.07;;;2.60;99.90;;;;;;5051118;28;20148;-70
2023/03/15 00:49:39;;;;;;;8.57;2.13;;;2.60;99.90;;;;;;5055952;28;20059;-70
2023/03/15 00:52:06;;;;;;;11.70;2.70;;;2.60;99.90;;;;;;5067093;28;20105;-70
2023/03/15 00:54:42;;;;;;;7.77;2.27;;;2.60;99.90;;;;;;5102517;27;20036;-70
2023/03/15 00:57:08;;;;;;;9.97;2.97;;;2.60;99.90;;;;;;5045681;28;20126;-70
2023/03/15 00:59:34;;;;;;;9.30;2.63;;;2.60;99.90;;;;;;5064685;28;20212;-70
2023/03/15 01:02:09;;;;;;;10.13;2.20;;;2.70;99.90;;;;;;5039367;28;20051;-70
2023/03/15 01:04:35;;;;;;;9.20;2.40;;;2.70;99.90;;;;;;5042468;28;20056;-71
2023/03/15 01:07:01;;;;;;;9.17;2.93;;;2.70;99.90;;;;;;5046824;28;20062;-71
2023/03/15 01:09:27;;;;;;;8.33;2.40;;;2.70;99.90;;;;;;5046522;28;20094;-71
2023/03/15 01:11:56;;;;;;;9.03;2.00;;;2.70;99.90;;;;;;5079985;28;20759;-71
2023/03/15 01:14:21;;;;;;;9.00;2.20;;;2.70;99.90;;;;;;5061876;28;20298;-71
2023/03/15 01:16:47;;;;;;;7.37;2.27;;;2.70;99.90;;;;;;5047105;28;20482;-71
2023/03/15 01:19:13;;;;;;;11.23;2.40;;;2.70;99.90;;;;;;5046324;28;20623;-75
2023/03/15 01:21:40;;;;;;;11.50;2.47;;;2.70;99.90;;;;;;5034112;28;20068;-75
2023/03/15 01:24:06;;;;;;;9.83;2.30;;;2.60;99.90;;;;;;5065700;28;20043;-75
2023/03/15 01:26:32;;;;;;;7.50;1.90;;;2.60;99.90;;;;;;5052440;28;20094;-75
2023/03/15 01:28:58;;;;;;;11.80;2.40;;;2.50;99.90;;;;;;5075866;28;20663;-75
2023/03/15 01:31:26;;;;;;;8.47;2.33;;;2.50;99.90;;;;;;5024618;28;20045;-75
2023/03/15 01:33:52;;;;;;;8.40;1.73;;;2.50;99.90;;;;;;5061691;28;20048;-75
2023/03/15 01:36:18;;;;;;;11.93;2.23;;;2.40;99.90;;;;;;5073389;28;20048;-75
2023/03/15 01:38:44;;;;;;;14.60;2.70;;;2.40;99.90;;;;;;5100342;27;20055;-75
2023/03/15 01:41:11;;;;;;;8.87;1.77;;;2.30;99.90;;;;;;5088466;28;20032;-75
2023/03/15 01:43:38;;;;;;;8.80;2.37;;;2.30;99.90;;;;;;5040697;28;20490;-75
2023/03/15 01:46:06;;;;;;;8.37;1.70;;;2.20;99.90;;;;;;5068098;28;20040;-75
2023/03/15 01:48:43;;;;;;;8.30;1.80;;;2.20;99.90;;;;;;5064643;28;20063;-75
2023/03/15 01:51:40;;;;;;;10.23;1.87;;;2.20;99.90;;;;;;5076095;28;20489;-75
2023/03/15 01:54:21;;;;;;;8.73;1.90;;;2.20;99.90;;;;;;5054833;28;20405;-75
2023/03/15 01:56:56;;;;;;;12.03;2.23;;;2.20;99.90;;;;;;5062708;28;20409;-75
2023/03/15 01:59:29;;;;;;;9.83;1.97;;;2.20;99.90;;;;;;5066421;28;20106;-75
2023/03/15 02:02:06;;;;;;;12.13;2.40;;;2.20;99.90;;;;;;5047565;28;20041;-71
2023/03/15 02:04:40;;;;;;;9.13;2.20;;;2.10;99.90;;;;;;5043443;28;20056;-71
2023/03/15 02:07:08;;;;;;;11.70;2.33;;;2.20;99.90;;;;;;5063109;28;20054;-71
2023/03/15 02:09:46;;;;;;;7.60;1.70;;;2.10;99.90;;;;;;5049789;28;20070;-71
2023/03/15 02:12:12;;;;;;;9.37;2.00;;;2.10;99.90;;;;;;5065403;28;20040;-71
2023/03/15 02:14:40;;;;;;;13.67;1.90;;;2.00;99.90;;;;;;5068921;28;20047;-75
2023/03/15 02:17:05;;;;;;;9.33;2.03;;;2.00;99.90;;;;;;5070635;28;20054;-75
2023/03/15 02:19:55;;;;;;;8.33;1.77;;;2.00;99.90;;;;;;5066005;28;20616;-75
2023/03/15 02:22:39;;;;;;;9.77;2.33;;;2.00;99.90;;;;;;5069107;28;20044;-75
2023/03/15 02:25:44;;;;;;;7.97;1.77;;;2.00;99.90;;;;;;5080998;28;20410;-75
2023/03/15 02:28:12;;;;;;;9.70;1.90;;;2.00;99.90;;;;;;5050175;28;20563;-75
2023/03/15 02:30:39;;;;;;;8.03;1.67;;;2.00;99.90;;;;;;5066231;28;20465;-75
2023/03/15 02:33:10;;;;;;;8.47;2.40;;;2.00;99.90;;;;;;5031758;28;20494;-74
2023/03/15 02:35:36;;;;;;;6.90;1.73;;;2.00;99.90;;;;;;5047090;28;20766;-75
2023/03/15 02:38:01;;;;;;;11.90;1.97;;;2.00;99.90;;;;;;5048431;28;20119;-74
2023/03/15 02:40:29;;;;;;;12.73;2.30;;;2.10;99.90;;;;;;5052837;28;20039;-74
2023/03/15 02:42:59;;;;;;;10.63;2.10;;;2.10;99.90;;;;;;5055809;28;20112;-75
2023/03/15 02:45:28;;;;;;;8.90;1.83;;;2.10;99.90;;;;;;5055647;28;20601;-74
2023/03/15 02:47:55;;;;;;;8.63;2.10;;;2.10;99.90;;;;;;5077741;28;20048;-75
2023/03/15 02:50:21;;;;;;;13.17;2.10;;;2.00;99.90;;;;;;5041667;28;20138;-76
2023/03/15 02:52:47;;;;;;;8.40;1.80;;;2.00;99.90;;;;;;5080548;28;20167;-73
2023/03/15 02:55:12;;;;;;;6.77;1.50;;;2.00;99.90;;;;;;5063931;28;20119;-76
2023/03/15 02:57:38;;;;;;;8.83;2.07;;;2.00;99.90;;;;;;5015574;28;20051;-73
2023/03/15 03:00:12;;;;;;;7.57;1.80;;;1.90;99.90;;;;;;5067473;28;20050;-73
2023/03/15 03:02:43;;;;;;;8.23;1.97;;;2.00;99.90;;;;;;5071011;28;20506;-73
2023/03/15 03:05:10;;;;;;;8.90;1.80;;;2.00;99.90;;;;;;5080605;28;20040;-73
2023/03/15 03:07:36;;;;;;;8.30;1.80;;;1.90;99.90;;;;;;5073251;28;20169;-73
2023/03/15 03:10:04;;;;;;;10.43;2.10;;;1.80;99.90;;;;;;5066208;28;20123;-73
2023/03/15 03:12:30;;;;;;;7.93;1.70;;;1.80;99.90;;;;;;5067694;28;20055;-73
2023/03/15 03:14:55;;;;;;;13.20;2.63;;;1.70;99.90;;;;;;5061854;28;20081;-76
2023/03/15 03:17:22;;;;;;;9.67;2.30;;;1.70;99.90;;;;;;5046937;28;20064;-75
2023/03/15 03:19:48;;;;;;;7.43;1.90;;;1.60;99.90;;;;;;5026209;28;20039;-76
2023/03/15 03:22:13;;;;;;;11.87;1.93;;;1.50;99.90;;;;;;5028642;28;20048;-74
2023/03/15 03:24:44;;;;;;;8.60;1.63;;;1.50;99.90;;;;;;5072567;28;20045;-74
2023/03/15 03:27:13;;;;;;;8.57;1.33;;;1.40;99.90;;;;;;5041051;28;21190;-74
2023/03/15 03:29:40;;;;;;;10.87;2.30;;;1.40;99.90;;;;;;5053267;28;20569;-70
2023/03/15 03:32:07;;;;;;;8.87;1.97;;;1.30;99.90;;;;;;5079951;28;20044;-70
2023/03/15 03:34:33;;;;;;;8.07;1.70;;;1.30;99.90;;;;;;5068175;28;20554;-70
2023/03/15 03:36:59;;;;;;;9.17;1.90;;;1.20;99.90;;;;;;5053258;28;20036;-70
2023/03/15 03:39:28;;;;;;;11.87;2.57;;;1.30;99.90;;;;;;5058449;28;20339;-74
2023/03/15 03:41:53;;;;;;;7.73;1.80;;;1.20;99.90;;;;;;5100486;27;20055;-74
2023/03/15 03:44:22;;;;;;;8.13;1.60;;;1.20;99.90;;;;;;5037544;28;20506;-74
2023/03/15 03:46:48;;;;;;;9.20;1.43;;;1.20;99.90;;;;;;5044161;28;20048;-74
2023/03/15 03:49:14;;;;;;;9.27;1.87;;;1.20;99.90;;;;;;5071014;28;20040;-74
2023/03/15 03:51:40;;;;;;;9.00;1.80;;;1.20;99.90;;;;;;5075008;28;20048;-75
2023/03/15 03:54:06;;;;;;;8.50;1.47;;;1.10;99.90;;;;;;5060829;28;20106;-74
2023/03/15 03:56:32;;;;;;;7.77;1.77;;;1.10;99.90;;;;;;5058685;28;20048;-75
2023/03/15 03:58:58;;;;;;;9.00;1.87;;;1.10;99.90;;;;;;5048802;28;20044;-74
2023/03/15 04:01:26;;;;;;;9.57;2.07;;;1.00;99.90;;;;;;5042856;28;20064;-70
2023/03/15 04:03:52;;;;;;;9.17;1.67;;;1.00;99.90;;;;;;5065809;28;20494;-70
2023/03/15 04:06:18;;;;;;;7.37;1.60;;;1.00;99.90;;;;;;5012354;28;20055;-70
2023/03/15 04:08:44;;;;;;;9.70;1.70;;;1.00;99.90;;;;;;5066897;28;20084;-70
2023/03/15 04:11:09;;;;;;;8.77;2.27;;;1.00;99.90;;;;;;5021585;28;20152;-70
2023/03/15 04:13:35;;;;;;;9.10;1.90;;;1.00;99.90;;;;;;5060139;28;20083;-71
2023/03/15 04:16:02;;;;;;;8.37;1.70;;;0.90;99.90;;;;;;5044009;28;20048;-71
2023/03/15 04:18:28;;;;;;;7.17;2.00;;;0.90;99.90;;;;;;5044577;28;20063;-70
2023/03/15 04:20:54;;;;;;;12.47;1.97;;;0.90;99.90;;;;;;5050344;28;20041;-71
2023/03/15 04:23:22;;;;;;;10.77;2.00;;;0.90;99.90;;;;;;5043005;28;20051;-70
2023/03/15 04:25:49;;;;;;;6.90;1.67;;;0.80;99.90;;;;;;5043565;28;20040;-70
2023/03/15 04:28:15;;;;;;;9.53;2.00;;;0.80;99.90;;;;;;5066235;28;20055;-70
2023/03/15 04:30:41;;;;;;;10.53;1.70;;;0.80;99.90;;;;;;5064153;28;20036;-70
2023/03/15 04:33:08;;;;;;;7.57;2.00;;;0.70;99.90;;;;;;5082425;28;20103;-70
2023/03/15 04:35:38;;;;;;;9.43;2.20;;;0.70;99.90;;;;;;5048565;28;20354;-74
2023/03/15 04:38:05;;;;;;;8.98;1.70;;;0.70;99.90;;;;;;5068742;28;20056;-74
2023/03/15 04:40:33;;;;;;;9.60;2.00;;;0.70;99.90;;;;;;5065164;28;20410;-74
2023/03/15 04:43:03;;;;;;;8.07;1.73;;;0.70;99.90;;;;;;5072541;28;20067;-74
2023/03/15 04:45:32;;;;;;;9.60;1.67;;;0.60;99.90;;;;;;5046706;28;20051;-74
2023/03/15 04:48:00;;;;;;;7.83;1.60;;;0.60;99.90;;;;;;5050041;28;20036;-74
2023/03/15 04:50:26;;;;;;;6.93;1.73;;;0.70;99.90;;;;;;5045643;28;20060;-73
2023/03/15 04:52:52;;;;;;;9.37;1.60;;;0.60;99.90;;;;;;5061078;28;20060;-74
2023/03/15 04:55:18;;;;;;;8.70;2.13;;;0.60;99.90;;;;;;5040540;28;20136;-73
2023/03/15 04:57:44;;;;;;;8.40;1.80;;;0.50;99.90;;;;;;5058894;28;20081;-74
2023/03/15 05:00:11;;;;;;;10.77;2.30;;;0.60;99.90;;;;;;5041690;28;20498;-74
2023/03/15 05:02:40;;;;;;;9.07;1.57;;;0.60;99.90;;;;;;5066482;28;20189;-74
2023/03/15 05:05:11;;;;;;;10.47;1.93;;;0.60;99.90;;;;;;5028851;28;20125;-74
2023/03/15 05:07:37;;;;;;;9.73;1.80;;;0.60;99.90;;;;;;5071843;28;20048;-70
2023/03/15 05:10:05;;;;;;;6.47;1.67;;;0.50;99.90;;;;;;5055754;28;20041;-70
2023/03/15 05:12:31;;;;;;;7.27;1.60;;;0.50;99.90;;;;;;5040290;28;20582;-70
2023/03/15 05:14:57;;;;;;;11.03;1.90;;;0.50;99.90;;;;;;5032624;28;20041;-70
2023/03/15 05:17:22;;;;;;;6.47;1.47;;;0.50;99.90;;;;;;5044306;28;20043;-70
2023/03/15 05:19:49;;;;;;;13.27;2.67;;;0.50;99.90;;;;;;5045835;28;20126;-70
2023/03/15 05:22:15;;;;;;;8.80;1.77;;;0.50;99.90;;;;;;5027720;28;20040;-70
2023/03/15 05:24:40;;;;;;;8.27;1.83;;;0.50;99.90;;;;;;5068154;28;20131;-75
2023/03/15 05:27:06;;;;;;;9.93;2.30;;;0.60;99.90;;;;;;5058827;28;20182;-73
2023/03/15 05:29:32;;;;;;;10.83;2.17;;;0.50;99.90;;;;;;5061747;28;20044;-74
2023/03/15 05:31:58;;;;;;;10.40;2.10;;;0.60;99.90;;;;;;5037834;28;20045;-74
2023/03/15 05:34:27;;;;;;;8.10;2.23;;;0.60;99.90;;;;;;5044235;28;20048;-70
2023/03/15 05:36:52;;;;;;;8.20;2.40;;;0.60;99.90;;;;;;5051703;28;20509;-74
2023/03/15 05:39:18;;;;;;;10.03;2.30;;;0.70;99.90;;;;;;5041205;28;20049;-75
2023/03/15 05:41:44;;;;;;;8.00;2.10;;;0.70;99.90;;;;;;5040651;28;20514;-75
2023/03/15 05:44:10;;;;;;;9.13;2.00;;;0.80;99.90;;;;;;5042312;28;20044;-71
2023/03/15 05:46:36;;;;;;;10.03;2.30;;;0.80;99.90;;;;;;5048231;28;20052;-71
2023/03/15 05:49:03;;;;;;;8.03;2.30;;;0.80;99.90;;;;;;5044699;28;20037;-71
2023/03/15 05:51:28;;;;;;;9.40;1.90;;;0.80;99.90;;;;;;5013677;28;20080;-70
2023/03/15 05:53:57;;;;;;;9.97;2.13;;;0.90;99.90;;;;;;5050957;28;20525;-71
2023/03/15 05:56:22;;;;;;;9.87;1.97;;;1.00;99.90;;;;;;5052795;28;20049;-71
2023/03/15 05:58:48;;;;;;;9.87;2.03;;;1.10;99.90;;;;;;5009045;28;20044;-71
2023/03/15 06:01:14;;;;;;;8.47;2.10;;;1.10;99.90;;;;;;5064816;28;20042;-70
2023/03/15 06:03:39;;;;;;;8.43;2.00;;;1.20;99.90;;;;;;5038032;28;20049;-71
2023/03/15 06:06:05;;;;;;;7.97;2.10;;;1.20;99.90;;;;;;5068359;28;20047;-71
2023/03/15 06:08:31;;;;;;;9.63;1.63;;;1.20;99.90;;;;;;5035527;28;20048;-71
2023/03/15 06:10:57;;;;;;;8.23;2.00;;;1.30;99.90;;;;;;5051532;28;20051;-71
2023/03/15 06:13:23;;;;;;;11.43;2.13;;;1.30;99.90;;;;;;5042656;28;20041;-70
2023/03/15 06:15:49;;;;;;;8.10;1.90;;;1.30;99.90;;;;;;5050865;28;20415;-71
2023/03/15 06:18:16;;;;;;;8.97;1.63;;;1.30;99.90;;;;;;5057212;28;20041;-71
2023/03/15 06:20:42;;;;;;;9.13;1.83;;;1.40;99.90;;;;;;5098767;27;20041;-75
2023/03/15 06:23:09;;;;;;;9.10;2.10;;;1.30;99.90;;;;;;5062476;28;20040;-75
2023/03/15 06:25:35;;;;;;;7.23;2.00;;;1.20;99.90;;;;;;5055874;28;20134;-74
2023/03/15 06:28:14;;;;;;;8.83;2.13;;;1.30;99.90;;;;;;5057915;28;20821;-74
2023/03/15 06:30:52;;;;;;;8.90;1.93;;;1.20;99.90;;;;;;5044078;28;20519;-75
2023/03/15 06:33:18;;;;;;;8.73;1.80;;;1.20;99.90;;;;;;5062380;28;20092;-75
2023/03/15 06:35:45;;;;;;;8.07;2.03;;;1.20;99.90;;;;;;5078483;28;20495;-75
2023/03/15 06:38:12;;;;;;;5.50;1.50;;;1.30;99.90;;;;;;5033158;28;20036;-75
2023/03/15 06:40:38;;;;;;;9.13;2.03;;;1.20;99.90;;;;;;5080020;28;20040;-75
2023/03/15 06:43:05;;;;;;;9.73;2.60;;;1.30;99.90;;;;;;5040862;28;20131;-75
2023/03/15 06:45:32;;;;;;;7.23;2.03;;;1.20;99.90;;;;;;5053998;28;20048;-71
2023/03/15 06:47:58;;;;;;;6.67;1.60;;;1.20;99.90;;;;;;5044702;28;20097;-71
2023/03/15 06:50:26;;;;;;;6.93;2.10;;;1.30;99.90;;;;;;5043747;28;20525;-71
2023/03/15 06:52:52;;;;;;;7.20;1.80;;;1.30;99.90;;;;;;5043023;28;20052;-71
2023/03/15 06:55:18;;;;;;;10.63;2.00;;;1.40;99.90;;;;;;5060223;28;20362;-74
2023/03/15 06:57:44;;;;;;;7.03;1.90;;;1.50;99.90;;;;;;5043254;28;20049;-75
2023/03/15 07:00:11;;;;;;;5.60;1.70;;;1.50;99.90;;;;;;5056411;28;20041;-75
2023/03/15 07:02:37;;;;;;;8.73;1.83;;;1.60;99.90;;;;;;5072255;28;20067;-75
2023/03/15 07:05:03;;;;;;;15.40;2.40;;;1.60;99.90;;;;;;5060940;28;20075;-75
2023/03/15 07:07:29;;;;;;;8.20;1.90;;;1.70;99.90;;;;;;5078151;28;20044;-75
2023/03/15 07:09:55;;;;;;;8.60;1.93;;;1.80;99.90;;;;;;5028828;28;20509;-75
2023/03/15 07:12:21;;;;;;;10.37;1.90;;;1.80;99.90;;;;;;5062404;28;20514;-75
2023/03/15 07:14:48;;;;;;;7.70;1.93;;;1.90;99.90;;;;;;5043459;28;20040;-75
2023/03/15 07:17:15;;;;;;;9.57;2.03;;;1.90;99.90;;;;;;5054655;28;20089;-74
2023/03/15 07:19:40;;;;;;;10.00;1.97;;;2.00;99.90;;;;;;5080493;28;20399;-75
2023/03/15 07:22:06;;;;;;;10.63;1.83;;;2.10;99.90;;;;;;5042415;28;20064;-76
2023/03/15 07:24:32;;;;;;;10.37;1.80;;;2.20;99.90;;;;;;5042899;28;20114;-75
2023/03/15 07:26:58;;;;;;;7.17;1.87;;;2.30;99.90;;;;;;5060013;28;20049;-76
2023/03/15 07:29:25;;;;;;;6.90;1.40;;;2.40;99.90;;;;;;5044364;28;20052;-75
2023/03/15 07:31:51;;;;;;;8.37;1.90;;;2.50;99.90;;;;;;5046839;28;20048;-74
2023/03/15 07:34:17;;;;;;;11.13;1.93;;;2.60;99.90;;;;;;5088308;28;20047;-75
2023/03/15 07:36:43;;;;;;;7.73;1.93;;;2.80;99.90;;;;;;5050388;28;20098;-74
2023/03/15 07:39:09;;;;;;;7.27;1.80;;;2.90;99.90;;;;;;5037173;28;20040;-75
2023/03/15 07:41:36;;;;;;;9.03;1.87;;;3.00;99.90;;;;;;5026888;28;20040;-73
2023/03/15 07:44:01;;;;;;;7.30;2.00;;;3.10;99.90;;;;;;5042245;28;20037;-72
2023/03/15 07:46:27;;;;;;;10.33;2.00;;;3.20;99.90;;;;;;5011407;28;20110;-72
2023/03/15 07:48:53;;;;;;;6.67;1.70;;;3.30;99.90;;;;;;5044486;28;20502;-73
2023/03/15 07:51:19;;;;;;;8.13;1.77;;;3.40;99.90;;;;;;5031876;28;20064;-74
2023/03/15 07:53:45;;;;;;;8.43;1.97;;;3.60;99.90;;;;;;5026323;28;20191;-74
2023/03/15 07:56:10;;;;;;;7.93;1.73;;;3.70;99.90;;;;;;5045153;28;20123;-73
2023/03/15 07:58:36;;;;;;;8.90;2.47;;;3.80;99.90;;;;;;5044396;28;20628;-73
2023/03/15 08:01:02;;;;;;;8.50;2.08;;;3.90;99.90;;;;;;5032430;28;20071;-73
2023/03/15 08:03:28;;;;;;;8.93;1.90;;;4.00;99.90;;;;;;5063888;28;20490;-72
2023/03/15 08:05:57;;;;;;;11.02;2.08;;;4.20;99.90;;;;;;5043989;28;20105;-74
2023/03/15 08:08:22;;;;;;;9.25;1.50;;;4.30;99.90;;;;;;5050734;28;20044;-73
2023/03/15 08:10:48;;;;;;;9.30;1.83;;;4.40;99.90;;;;;;5029116;28;20520;-73
2023/03/15 08:13:14;;;;;;;7.45;1.83;;;4.50;99.90;;;;;;5055858;28;20044;-72
2023/03/15 08:15:40;;;;;;;7.28;1.77;;;4.70;99.90;;;;;;5037179;28;20119;-72
2023/03/15 08:18:06;;;;;;;8.00;1.90;;;4.80;99.90;;;;;;5046131;28;20558;-74
2023/03/15 08:20:34;;;;;;;14.23;2.45;;;5.00;99.90;;;;;;5028283;28;20502;-72
2023/03/15 08:23:00;;;;;;;7.28;1.90;;;5.10;99.90;;;;;;5046895;28;20080;-74
2023/03/15 08:25:26;;;;;;;9.35;2.33;;;5.20;99.90;;;;;;5041525;28;20044;-74
2023/03/15 08:27:52;;;;;;;7.00;1.70;;;5.40;99.90;;;;;;5058329;28;20040;-74
2023/03/15 08:30:19;;;;;;;7.57;2.10;;;5.50;99.90;;;;;;5038014;28;20044;-73
2023/03/15 08:32:46;;;;;;;11.35;2.42;;;5.70;99.90;;;;;;5031571;28;20056;-73
2023/03/15 08:35:15;;;;;;;11.43;2.95;;;5.70;99.90;;;;;;5027133;28;20406;-72
2023/03/15 08:37:46;;;;;;;8.10;2.05;;;5.80;99.90;;;;;;5047289;28;20044;-72
2023/03/15 08:40:13;;;;;;;10.10;1.77;;;5.80;99.90;;;;;;5095157;28;20048;-73
2023/03/15 08:42:39;;;;;;;10.07;2.03;;;5.80;99.90;;;;;;5043640;28;20043;-73
2023/03/15 08:45:06;;;;;;;8.07;1.75;;;5.80;99.90;;;;;;5061186;28;20403;-74
2023/03/15 08:47:35;;;;;;;9.10;1.73;;;5.80;99.90;;;;;;5043140;28;20075;-74
2023/03/15 08:50:04;;;;;;;10.02;1.85;;;5.80;99.90;;;;;;5036936;28;20552;-73
2023/03/15 08:52:30;;;;;;;5.40;1.50;;;5.80;99.90;;;;;;5061480;28;20075;-73
2023/03/15 08:54:56;;;;;;;6.57;1.48;;;5.90;99.90;;;;;;5053233;28;20051;-74
2023/03/15 08:57:27;;;;;;;7.90;1.58;;;5.90;99.90;;;;;;5055215;28;20052;-74
2023/03/15 08:59:54;;;;;;;4.78;1.00;;;6.00;99.90;;;;;;5051226;28;20421;-73
2023/03/15 09:02:22;;;;;;;7.13;1.45;;;6.00;99.90;;;;;;5045749;28;20052;-74
2023/03/15 09:04:48;;;;;;;6.57;1.70;;;6.10;99.90;;;;;;5063874;28;20058;-73
2023/03/15 09:07:14;;;;;;;7.05;1.52;;;6.10;99.90;;;;;;5044708;28;20645;-74
2023/03/15 09:09:40;;;;;;;8.07;1.50;;;6.20;99.90;;;;;;5069046;28;20445;-73
2023/03/15 09:12:07;;;;;;;5.65;1.42;;;6.20;99.90;;;;;;5070394;28;20044;-74
2023/03/15 09:14:33;;;;;;;6.85;1.70;;;6.30;99.90;;;;;;5066128;28;20056;-74
2023/03/15 09:16:59;;;;;;;5.70;1.20;;;6.40;99.90;;;;;;5042773;28;20697;-73
2023/03/15 09:19:25;;;;;;;5.25;1.40;;;6.50;99.90;;;;;;5063133;28;20067;-74
2023/03/15 09:21:51;;;;;;;6.07;1.50;;;6.50;99.90;;;;;;5074926;28;20041;-74
2023/03/15 09:24:17;;;;;;;5.90;1.20;;;6.50;99.90;;;;;;5061523;28;20432;-73
2023/03/15 09:26:43;;;;;;;8.02;1.50;;;6.50;99.90;;;;;;5032119;28;20056;-73
2023/03/15 09:29:11;;;;;;;5.28;1.25;;;6.50;99.90;;;;;;5047028;28;20410;-74
2023/03/15 09:31:37;;;;;;;6.85;1.10;;;6.60;99.90;;;;;;5027102;28;20044;-74
2023/03/15 09:34:04;;;;;;;4.55;1.00;;;6.50;99.90;;;;;;5075202;28;20043;-74
2023/03/15 09:36:31;;;;;;;4.63;1.52;;;6.50;99.90;;;;;;5046614;28;20055;-74
2023/03/15 09:38:57;;;;;;;6.82;1.30;;;6.50;99.90;;;;;;5062432;28;20051;-73
2023/03/15 09:41:31;;;;;;;5.60;1.35;;;6.50;99.90;;;;;;5053241;28;20121;-73
2023/03/15 09:44:06;;;;;;;6.35;1.42;;;6.60;99.90;;;;;;5062501;28;20357;-73
2023/03/15 09:46:38;;;;;;;6.75;1.20;;;6.70;99.90;;;;;;5052588;28;20521;-74
2023/03/15 09:49:20;;;;;;;6.55;1.40;;;6.70;99.90;;;;;;5106851;28;20051;-75
2023/03/15 09:52:00;;;;;;;7.97;1.98;;;6.70;99.90;;;;;;5068200;28;20109;-74
2023/03/15 09:54:38;;;;;;;7.13;1.73;;;6.60;99.90;;;;;;5050268;28;20127;-74
2023/03/15 09:57:40;;;;;;;7.63;1.38;;;6.60;99.90;;;;;;5066830;28;20071;-73
2023/03/15 10:00:11;;;;;;;5.68;1.30;;;6.60;99.90;;;;;;5064560;28;20055;-74
2023/03/15 10:02:42;;;;;;;7.07;1.80;;;6.60;99.90;;;;;;5058398;28;20478;-73
2023/03/15 10:05:22;;;;;;;7.53;1.40;;;6.60;99.90;;;;;;5100945;27;20451;-74
2023/03/15 10:07:47;;;;;;;8.55;1.48;;;6.60;99.90;;;;;;5064590;28;20101;-74
2023/03/15 10:10:20;;;;;;;10.32;1.65;;;6.70;99.90;;;;;;5063984;28;20048;-74
2023/03/15 10:12:56;;;;;;;9.05;1.55;;;6.80;99.90;;;;;;5064652;28;20050;-73
2023/03/15 10:15:27;;;;;;;7.78;1.77;;;6.90;99.90;;;;;;5065167;28;20056;-73
2023/03/15 10:18:30;;;;;;;8.55;1.75;;;7.00;99.90;;;;;;5064920;28;20272;-73
2023/03/15 10:21:14;;;;;;;10.73;1.88;;;7.10;99.90;;;;;;5053210;28;20051;-73
2023/03/15 10:23:54;;;;;;;6.18;1.30;;;7.20;98.50;;;;;;5069380;28;20494;-74
2023/03/15 10:26:28;;;;;;;8.43;1.55;;;7.30;99.60;;;;;;5101508;27;20458;-75
2023/03/15 10:28:54;;;;;;;7.97;2.00;;;7.40;99.90;;;;;;5048181;28;20040;-74
2023/03/15 10:31:33;;;;;;;7.40;1.40;;;7.50;97.50;;;;;;5034791;28;20044;-74
2023/03/15 10:33:59;;;;;;;9.05;1.70;;;7.50;94.40;;;;;;5099563;28;20134;-73
2023/03/15 10:36:25;;;;;;;6.75;1.33;;;7.50;95.40;;;;;;5046862;28;20079;-78
2023/03/15 10:38:51;;;;;;;7.93;1.60;;;7.50;95.40;;;;;;5060163;28;20067;-73
2023/03/15 10:41:41;;;;;;;7.22;1.70;;;7.60;94.90;;;;;;5069325;28;20246;-73
2023/03/15 10:44:35;;;;;;;6.88;1.58;;;7.60;93.70;;;;;;5053466;28;20035;-74
2023/03/15 10:47:05;;;;;;;6.82;1.90;;;7.60;94.20;;;;;;5096821;28;20501;-73
2023/03/15 10:49:36;;;;;;;5.57;1.33;;;7.60;93.00;;;;;;5044479;28;20482;-75
2023/03/15 10:52:03;;;;;;;8.98;1.83;;;7.70;92.60;;;;;;5051358;28;20402;-75
2023/03/15 10:54:32;;;;;;;7.03;1.48;;;7.70;89.50;;;;;;5046328;28;20352;-73
2023/03/15 10:57:15;;;;;;;7.85;1.42;;;7.80;87.30;;;;;;5066834;28;20048;-73
2023/03/15 11:00:03;;;;;;;5.80;1.40;;;7.80;88.40;;;;;;5055998;28;20399;-73
2023/03/15 11:02:30;;;;;;;8.68;1.70;;;7.80;89.70;;;;;;5045573;28;20036;-73
2023/03/15 11:05:12;;;;;;;8.30;1.40;;;7.90;90.00;;;;;;5052268;28;20036;-74
2023/03/15 11:07:54;;;;;;;8.65;1.75;;;8.00;90.70;;;;;;5064953;28;20561;-73
2023/03/15 11:10:22;;;;;;;7.18;1.25;;;8.00;90.10;;;;;;5064944;28;20510;-73
2023/03/15 11:12:48;;;;;;;5.95;1.30;;;8.10;88.80;;;;;;5048184;28;20125;-74
2023/03/15 11:15:15;;;;;;;8.15;1.70;;;8.20;92.10;;;;;;5029976;28;20036;-74
2023/03/15 11:17:44;;;;;;;7.45;1.60;;;8.20;90.90;;;;;;5028336;28;20075;-73
2023/03/15 11:20:30;;;;;;;7.30;2.53;;;8.30;90.70;;;;;;5063459;28;20036;-73
2023/03/15 11:22:58;;;;;;;7.35;2.10;;;8.30;91.40;;;;;;5065419;28;20053;-73
2023/03/15 11:25:32;;;;;;;7.70;1.30;;;8.40;92.10;;;;;;5062525;28;20060;-73
2023/03/15 11:27:58;;;;;;;7.50;1.58;;;8.50;90.10;;;;;;5049843;28;20390;-73
2023/03/15 11:30:30;;;;;;;5.28;1.38;;;8.60;89.40;;;;;;5030696;28;20062;-73
2023/03/15 11:33:07;;;;;;;5.93;1.50;;;8.60;88.00;;;;;;5067307;28;20044;-73
2023/03/15 11:35:39;;;;;;;7.97;1.30;;;8.50;82.30;;;;;;5063850;28;20264;-74
2023/03/15 11:38:34;;;;;;;7.78;1.35;;;8.20;77.40;;;;;;5065081;28;20050;-73
2023/03/15 11:41:32;;;;;;;5.55;1.52;;;7.90;78.60;;;;;;5060815;28;20051;-73
2023/03/15 11:44:26;;;;;;;6.18;1.30;;;7.90;79.80;;;;;;5027070;28;20060;-73
2023/03/15 11:47:00;;;;;;;5.70;1.13;;;7.90;80.40;;;;;;5065438;28;20063;-73
2023/03/15 11:49:45;;;;;;;5.80;1.50;;;8.00;80.90;;;;;;5062994;28;20093;-73
2023/03/15 11:52:11;;;;;;;5.63;1.50;;;8.20;80.80;;;;;;5080891;28;20044;-73
2023/03/15 11:54:37;;;;;;;5.18;1.25;;;8.30;80.90;;;;;;5045673;28;20055;-74
2023/03/15 11:57:25;;;;;;;5.35;1.38;;;8.30;77.70;;;;;;5031649;28;20032;-75
2023/03/15 11:59:50;;;;;;;6.38;1.30;;;8.10;78.10;;;;;;5045136;28;20043;-74
2023/03/15 12:02:16;;;;;;;11.20;1.70;;;7.90;78.50;;;;;;5043673;28;20048;-75
2023/03/15 12:04:43;;;;;;;5.57;1.30;;;7.80;78.10;;;;;;5047219;28;20081;-75
2023/03/15 12:07:18;;;;;;;7.22;1.67;;;7.80;79.50;;;;;;5064109;28;20402;-75
2023/03/15 12:09:50;;;;;;;7.55;1.63;;;8.00;80.60;;;;;;5045364;28;20075;-75
2023/03/15 12:12:25;;;;;;;6.45;1.85;;;8.10;81.00;;;;;;5056469;28;20499;-75
2023/03/15 12:15:04;;;;;;;5.38;1.38;;;8.30;79.20;;;;;;5047332;28;20045;-74
2023/03/15 12:17:29;;;;;;;6.88;1.58;;;8.50;83.40;;;;;;5067608;28;20044;-74
2023/03/15 12:20:30;;;;;;;6.97;1.40;;;8.60;81.20;;;;;;5060476;28;20380;-74
2023/03/15 12:23:29;;;;;;;5.65;1.50;;;8.80;78.00;;;;;;5034481;28;20751;-73
2023/03/15 12:26:09;;;;;;;5.60;1.30;;;8.80;76.40;;;;;;5051095;28;20374;-75
2023/03/15 12:28:50;;;;;;;6.40;1.10;;;8.90;78.10;;;;;;5044664;28;20629;-74
2023/03/15 12:31:16;;;;;;;5.22;1.45;;;9.00;75.00;;;;;;5050980;28;20135;-74
2023/03/15 12:33:52;;;;;;;5.75;1.42;;;9.00;74.40;;;;;;5059491;28;20037;-73
2023/03/15 12:36:37;;;;;;;4.53;1.30;;;9.00;79.00;;;;;;5064008;28;20052;-73
2023/03/15 12:39:15;;;;;;;6.90;1.33;;;9.10;70.10;;;;;;5060486;28;20513;-73
2023/03/15 12:41:47;;;;;;;5.95;1.35;;;9.10;72.10;;;;;;5071368;28;20094;-74
2023/03/15 12:44:22;;;;;;;5.97;1.20;;;9.20;69.00;;;;;;5044303;28;20047;-73
2023/03/15 12:46:48;;;;;;;7.05;1.00;;;9.10;71.10;;;;;;5062924;28;20076;-75
2023/03/15 12:49:28;;;;;;;4.38;1.50;;;9.00;67.20;;;;;;5045981;28;20090;-75
2023/03/15 12:52:01;;;;;;;6.30;1.20;;;8.90;68.60;;;;;;5044698;28;20048;-75
2023/03/15 12:54:52;;;;;;;4.80;1.08;;;8.90;71.00;;;;;;5044036;28;20053;-75
2023/03/15 12:57:23;;;;;;;6.70;1.50;;;9.00;69.40;;;;;;5062271;28;20056;-75
2023/03/15 12:59:55;;;;;;;4.72;1.30;;;9.00;73.90;;;;;;5073597;28;20049;-75
2023/03/15 13:03:15;;;;;;;4.32;1.00;;;9.20;71.20;;;;;;5059859;28;20040;-75
2023/03/15 13:05:47;;;;;;;;;;;9.30;69.10;;;;;;4980615;28;20052;-75
2023/03/15 13:08:21;;;;;;;6.88;1.33;;;9.30;69.90;;;;;;4984015;28;19921;-75